createdAt,value
2018-04-01T00:02:12.702Z,1.92
2018-04-01T00:08:14.136Z,2.03
2018-04-01T00:12:15.004Z,1.95
2018-04-01T00:18:16.314Z,2
2018-04-01T00:24:17.702Z,2.43
2018-04-01T00:28:19.057Z,2.37
2018-04-01T00:34:20.382Z,2.36
2018-04-01T00:38:21.892Z,1.9
2018-04-01T00:44:23.326Z,2.09
2018-04-01T00:50:24.698Z,2.19
2018-04-01T00:54:25.133Z,2.03
2018-04-01T01:00:26.543Z,2.38
2018-04-01T01:04:27.876Z,2.16
2018-04-01T01:10:29.295Z,2.96
2018-04-01T01:16:30.704Z,2.79
2018-04-01T01:20:32.015Z,2.43
2018-04-01T01:26:33.383Z,2.63
2018-04-01T01:30:34.504Z,2.47
2018-04-01T01:36:35.913Z,3.98
2018-04-01T01:40:37.347Z,3.58
2018-04-01T01:42:38.678Z,4.01
2018-04-01T01:46:39.528Z,3.45
2018-04-01T01:52:41.004Z,4.07
2018-04-01T01:56:42.475Z,4.03
2018-04-01T02:02:43.874Z,3.76
2018-04-01T02:06:45.231Z,3.83
2018-04-01T02:08:46.572Z,3.44
2018-04-01T02:12:47.978Z,3.31
2018-04-01T02:18:49.362Z,3.19
2018-04-01T02:22:50.785Z,2.9
2018-04-01T02:28:52.262Z,3.91
2018-04-01T02:32:53.652Z,4.26
2018-04-01T02:34:54.936Z,6.02
2018-04-01T02:38:56.386Z,6.19
2018-04-01T02:44:57.727Z,8.26
2018-04-01T02:48:59.125Z,8.12
2018-04-01T02:55:00.627Z,8.91
2018-04-01T02:59:02.010Z,9.02
2018-04-01T03:05:03.372Z,9.76
2018-04-01T03:11:04.744Z,9.02
2018-04-01T03:15:06.055Z,10.06
2018-04-01T03:21:07.421Z,10.64
2018-04-01T03:25:08.788Z,10.31
2018-04-01T03:31:10.252Z,9.52
2018-04-01T03:37:11.610Z,7.32
2018-04-01T03:41:12.968Z,6.71
2018-04-01T03:47:14.414Z,5.96
2018-04-01T03:51:15.855Z,6.45
2018-04-01T03:57:17.311Z,6.45
2018-04-01T04:03:18.663Z,4.53
2018-04-01T04:07:20.057Z,3.97
2018-04-01T04:13:21.447Z,2.57
2018-04-01T04:17:22.859Z,2.3
2018-04-01T04:23:24.167Z,2.78
2018-04-01T04:29:25.564Z,2.94
2018-04-01T04:33:26.924Z,2.92
2018-04-01T04:39:28.266Z,2.91
2018-04-01T04:43:29.596Z,2.84
2018-04-01T04:49:31.046Z,2.9
2018-04-01T04:55:32.158Z,2.96
2018-04-01T04:59:33.586Z,2.99
2018-04-01T05:05:34.971Z,3.5
2018-04-01T05:09:36.288Z,3.29
2018-04-01T05:15:37.743Z,2.86
2018-04-01T05:19:39.069Z,2.99
2018-04-01T05:21:40.381Z,2.91
2018-04-01T05:25:41.663Z,2.47
2018-04-01T05:31:43.058Z,2.82
2018-04-01T05:35:44.484Z,2.86
2018-04-01T05:41:45.823Z,2.81
2018-04-01T05:45:47.237Z,2.54
2018-04-01T05:47:48.508Z,2.13
2018-04-01T05:51:49.949Z,1.99
2018-04-01T05:57:51.246Z,2.41
2018-04-01T06:01:52.659Z,2.06
2018-04-01T06:07:54.062Z,2.26
2018-04-01T06:11:55.412Z,2.3
2018-04-01T06:13:56.915Z,2.16
2018-04-01T06:17:58.334Z,2.56
2018-04-01T06:23:59.674Z,2.92
2018-04-01T06:28:01.072Z,2.58
2018-04-01T06:34:02.572Z,3.1
2018-04-01T06:38:03.846Z,3.46
2018-04-01T06:44:05.228Z,4.26
2018-04-01T06:50:06.685Z,4.02
2018-04-01T06:54:08.039Z,4.15
2018-04-01T07:00:09.408Z,5.1
2018-04-01T07:04:10.767Z,5
2018-04-01T07:10:12.112Z,5.82
2018-04-01T07:16:13.567Z,7.57
2018-04-01T07:20:14.276Z,7.48
2018-04-01T07:26:15.687Z,5.91
2018-04-01T07:30:17.149Z,5.47
2018-04-01T07:36:18.485Z,6.24
2018-04-01T07:42:19.884Z,10.86
2018-04-01T07:46:21.218Z,11.13
2018-04-01T07:52:22.780Z,12.09
2018-04-01T07:56:24.151Z,11.46
2018-04-01T08:02:25.511Z,11.35
2018-04-01T08:08:26.873Z,11.33
2018-04-01T08:12:28.262Z,10.46
2018-04-01T08:18:29.607Z,10.58
2018-04-01T08:22:31.067Z,10.18
2018-04-01T08:28:32.492Z,10.64
2018-04-01T08:34:33.865Z,9.95
2018-04-01T08:38:36.189Z,9.82
2018-04-01T08:44:37.609Z,8.02
2018-04-01T08:48:39.025Z,7.71
2018-04-01T08:54:40.438Z,4.9
2018-04-01T08:58:41.819Z,4.47
2018-04-01T09:00:43.197Z,4.97
2018-04-01T09:04:44.543Z,5.24
2018-04-01T09:10:46.013Z,5.22
2018-04-01T09:14:47.374Z,5.25
2018-04-01T09:20:48.763Z,5.72
2018-04-01T09:24:50.253Z,5.98
2018-04-01T09:26:51.650Z,6.3
2018-04-01T09:30:53.088Z,5.45
2018-04-01T09:36:54.559Z,5.19
2018-04-01T09:40:55.960Z,5.33
2018-04-01T09:46:57.393Z,5.91
2018-04-01T09:50:58.875Z,5.02
2018-04-01T09:53:00.030Z,6.59
2018-04-01T09:57:01.727Z,6.12
2018-04-01T10:03:03.058Z,6.72
2018-04-01T10:07:04.426Z,5.9
2018-04-01T10:13:05.869Z,5.14
2018-04-01T10:17:07.216Z,5.11
2018-04-01T10:23:08.679Z,4.95
2018-04-01T10:29:10.157Z,4.91
2018-04-01T10:33:11.509Z,5.03
2018-04-01T10:39:12.856Z,4.65
2018-04-01T10:43:14.231Z,5.26
2018-04-01T10:49:15.729Z,4.4
2018-04-01T10:55:17.179Z,4.5
2018-04-01T10:59:17.911Z,4.26
2018-04-01T11:05:19.233Z,3.57
2018-04-01T11:09:20.789Z,3.65
2018-04-01T11:15:22.079Z,3.23
2018-04-01T11:21:23.513Z,3.29
2018-04-01T11:25:24.864Z,4.03
2018-04-01T11:31:26.274Z,4.63
2018-04-01T11:35:27.603Z,3.71
2018-04-01T11:41:28.986Z,4.74
2018-04-01T11:47:30.404Z,3.05
2018-04-01T11:51:31.795Z,3.06
2018-04-01T11:57:33.191Z,3.44
2018-04-01T12:01:34.511Z,3
2018-04-01T12:07:35.937Z,4.09
2018-04-01T12:13:37.349Z,3.39
2018-04-01T12:17:38.699Z,3.52
2018-04-01T12:23:40.068Z,3.7
2018-04-01T12:27:41.435Z,3.94
2018-04-01T12:33:42.846Z,3.16
2018-04-01T12:39:44.439Z,3.07
2018-04-01T12:43:45.763Z,2.99
2018-04-01T12:49:47.166Z,3.21
2018-04-01T12:53:48.557Z,2.9
2018-04-01T12:59:49.954Z,2.97
2018-04-01T13:03:51.364Z,2.62
2018-04-01T13:05:52.718Z,2.85
2018-04-01T13:09:54.093Z,3.03
2018-04-01T13:15:55.491Z,2.82
2018-04-01T13:19:56.849Z,2.84
2018-04-01T13:25:58.206Z,3.27
2018-04-01T13:29:59.676Z,3.11
2018-04-01T13:32:01.017Z,2.88
2018-04-01T13:36:02.313Z,2.68
2018-04-01T13:42:03.769Z,2.48
2018-04-01T13:46:05.151Z,2.59
2018-04-01T13:52:06.610Z,2.58
2018-04-01T13:56:07.985Z,2.56
2018-04-01T13:58:09.311Z,2.65
2018-04-01T14:02:10.656Z,2.47
2018-04-01T14:08:12.087Z,2.67
2018-04-01T14:12:13.437Z,2.61
2018-04-01T14:18:14.310Z,2.71
2018-04-01T14:22:15.707Z,2.45
2018-04-01T14:24:17.058Z,2.58
2018-04-01T14:28:18.457Z,2.87
2018-04-01T14:34:19.803Z,2.47
2018-04-01T14:38:21.197Z,2.52
2018-04-01T14:44:22.731Z,3.17
2018-04-01T14:48:24.114Z,2.7
2018-04-01T14:50:24.688Z,2.57
2018-04-01T14:54:25.989Z,2.42
2018-04-01T15:00:27.324Z,2.73
2018-04-01T15:04:28.751Z,2.41
2018-04-01T15:10:30.160Z,2.97
2018-04-01T15:14:31.623Z,2.62
2018-04-01T15:20:32.944Z,2.93
2018-04-01T15:26:34.350Z,2.95
2018-04-01T15:30:35.697Z,2.82
2018-04-01T15:36:37.066Z,2.43
2018-04-01T15:40:38.417Z,2.69
2018-04-01T15:46:40.079Z,2.07
2018-04-01T15:52:41.510Z,3.28
2018-04-01T15:56:42.895Z,2.47
2018-04-01T16:02:44.309Z,2.93
2018-04-01T16:06:45.626Z,2.51
2018-04-01T16:12:46.962Z,2.42
2018-04-01T16:18:48.343Z,2.62
2018-04-01T16:22:49.702Z,2.06
2018-04-01T16:28:51.046Z,2.47
2018-04-01T16:32:52.362Z,1.96
2018-04-01T16:38:53.811Z,2.22
2018-04-01T16:44:55.209Z,2.64
2018-04-01T16:48:56.527Z,2.45
2018-04-01T16:54:57.926Z,2.39
2018-04-01T16:58:59.320Z,2.37
2018-04-01T17:05:00.747Z,2.14
2018-04-01T17:11:02.125Z,2.88
2018-04-01T17:15:03.455Z,2.35
2018-04-01T17:21:04.854Z,2.97
2018-04-01T17:25:06.199Z,3.23
2018-04-01T17:31:07.587Z,2.69
2018-04-01T17:37:08.688Z,4
2018-04-01T17:41:10.056Z,3.89
2018-04-01T17:47:11.432Z,4.44
2018-04-01T17:51:12.823Z,4.27
2018-04-01T17:57:14.178Z,4.93
2018-04-01T18:03:15.601Z,5
2018-04-01T18:07:16.962Z,4.49
2018-04-01T18:13:18.439Z,5.45
2018-04-01T18:17:19.699Z,4.78
2018-04-01T18:23:21.010Z,6.96
2018-04-01T18:29:22.443Z,6.2
2018-04-01T18:33:23.808Z,5.72
2018-04-01T18:39:25.370Z,6.19
2018-04-01T18:43:26.469Z,6.36
2018-04-01T18:49:27.900Z,5
2018-04-01T18:55:29.286Z,4.62
2018-04-01T18:59:30.652Z,4.94
2018-04-01T19:05:31.990Z,4.89
2018-04-01T19:09:32.778Z,4.44
2018-04-01T19:15:34.157Z,4.71
2018-04-01T19:21:35.586Z,4.61
2018-04-01T19:25:36.859Z,4.57
2018-04-01T19:31:38.249Z,5.64
2018-04-01T19:35:39.569Z,4.74
2018-04-01T19:41:41.022Z,6.33
2018-04-01T19:45:42.445Z,6.15
2018-04-01T19:47:43.770Z,6.73
2018-04-01T19:51:45.184Z,7.68
2018-04-01T19:57:46.596Z,6.52
2018-04-01T20:01:47.932Z,7.32
2018-04-01T20:07:49.316Z,6.45
2018-04-01T20:11:50.722Z,5.74
2018-04-01T20:13:52.006Z,6.31
2018-04-01T20:17:53.417Z,6.34
2018-04-01T20:23:54.501Z,6.9
2018-04-01T20:27:55.895Z,7
2018-04-01T20:33:57.288Z,8.84
2018-04-01T20:37:58.683Z,8.24
2018-04-01T20:40:00.401Z,7.21
2018-04-01T20:44:02.000Z,7.5
2018-04-01T20:50:03.335Z,7.11
2018-04-01T20:54:04.737Z,6.61
2018-04-01T21:00:06.150Z,6.93
2018-04-01T21:04:07.501Z,6.75
2018-04-01T21:10:08.932Z,6.52
2018-04-01T21:16:09.827Z,7.02
2018-04-01T21:20:11.221Z,6.3
2018-04-01T21:26:12.561Z,7.41
2018-04-01T21:30:13.459Z,7.59
2018-04-01T21:36:14.047Z,12.26
2018-04-01T21:42:15.542Z,8.85
2018-04-01T21:46:17.073Z,8.31
2018-04-01T21:52:18.501Z,6.76
2018-04-01T21:56:19.821Z,7.47
2018-04-01T22:02:21.203Z,7.8
2018-04-01T22:08:22.659Z,8.21
2018-04-01T22:12:23.989Z,8.16
2018-04-01T22:18:25.374Z,6.95
2018-04-01T22:22:26.740Z,6.78
2018-04-01T22:28:28.111Z,6.19
2018-04-01T22:34:29.456Z,8.07
2018-04-01T22:38:30.452Z,6.85
2018-04-01T22:44:31.843Z,6.61
2018-04-01T22:48:33.132Z,7.15
2018-04-01T22:54:33.610Z,6.87
2018-04-01T23:00:34.970Z,7.84
2018-04-01T23:04:36.328Z,7.66
2018-04-01T23:10:37.697Z,6.92
2018-04-01T23:14:39.121Z,7.07
2018-04-01T23:20:40.452Z,6.75
2018-04-01T23:26:41.824Z,6.9
2018-04-01T23:30:42.695Z,7.3
2018-04-01T23:36:44.013Z,6.73
2018-04-01T23:40:44.791Z,6.93
2018-04-01T23:46:46.152Z,7.08
2018-04-01T23:52:47.569Z,6.73
2018-04-01T23:56:48.878Z,7.11
